createdAt,value
2023-01-22T00:02:49.987Z,28.80
2023-01-22T00:07:52.146Z,28.90
2023-01-22T00:12:54.277Z,28.80
2023-01-22T00:17:56.366Z,29.00
2023-01-22T00:22:58.542Z,29.10
2023-01-22T00:28:00.637Z,29.10
2023-01-22T00:33:02.976Z,29.10
2023-01-22T00:38:05.699Z,29.50
2023-01-22T00:43:07.846Z,29.30
2023-01-22T00:48:10.106Z,29.30
2023-01-22T00:53:12.203Z,29.30
2023-01-22T00:58:14.280Z,29.40
2023-01-22T01:03:32.328Z,29.30
2023-01-22T01:08:42.125Z,29.30
2023-01-22T01:18:47.073Z,29.40
2023-01-22T01:23:49.088Z,29.60
2023-01-22T01:28:54.411Z,29.30
2023-01-22T01:33:56.979Z,29.50
2023-01-22T01:38:59.102Z,29.30
2023-01-22T01:44:17.053Z,29.30
2023-01-22T01:49:29.845Z,29.40
2023-01-22T01:54:32.036Z,29.50
2023-01-22T01:59:35.619Z,29.50
2023-01-22T02:04:37.977Z,29.30
2023-01-22T02:09:40.057Z,29.40
2023-01-22T02:14:45.943Z,29.40
2023-01-22T02:19:48.447Z,29.40
2023-01-22T02:24:51.295Z,29.30
2023-01-22T02:29:56.471Z,29.50
2023-01-22T02:34:58.572Z,29.50
2023-01-22T02:40:01.205Z,29.40
2023-01-22T02:45:03.664Z,29.50
2023-01-22T02:50:05.995Z,29.40
2023-01-22T02:55:09.049Z,29.20
2023-01-22T03:05:17.383Z,29.40
2023-01-22T03:10:20.931Z,29.30
2023-01-22T03:15:42.029Z,29.40
2023-01-22T03:26:07.325Z,29.40
2023-01-22T03:31:09.888Z,29.30
2023-01-22T03:36:13.106Z,29.30
2023-01-22T03:41:16.306Z,29.30
2023-01-22T03:46:20.684Z,29.30
2023-01-22T03:51:24.647Z,29.30
2023-01-22T03:56:27.685Z,29.30
2023-01-22T04:01:31.113Z,29.30
2023-01-22T04:06:33.251Z,29.30
2023-01-22T04:11:35.442Z,29.30
2023-01-22T04:21:44.190Z,29.40
2023-01-22T04:26:46.918Z,29.40
2023-01-22T04:31:50.312Z,29.40
2023-01-22T04:36:54.002Z,29.50
2023-01-22T04:46:58.917Z,29.50
2023-01-22T04:52:01.203Z,29.50
2023-01-22T04:57:04.129Z,29.50
2023-01-22T05:02:06.433Z,29.50
2023-01-22T05:07:08.933Z,29.50
2023-01-22T05:12:11.779Z,29.60
2023-01-22T05:17:14.713Z,29.60
2023-01-22T05:22:17.019Z,29.60
2023-01-22T05:27:19.354Z,29.60
2023-01-22T05:32:22.901Z,29.50
2023-01-22T05:37:26.766Z,29.60
2023-01-22T05:47:32.919Z,29.80
2023-01-22T05:57:39.406Z,29.80
2023-01-22T06:02:41.731Z,29.80
2023-01-22T06:07:43.898Z,29.80
2023-01-22T06:12:46.274Z,29.80
2023-01-22T06:17:48.604Z,29.70
2023-01-22T06:22:51.897Z,29.60
2023-01-22T06:27:54.019Z,29.70
2023-01-22T06:32:56.342Z,30.00
2023-01-22T06:43:10.882Z,29.60
2023-01-22T06:48:13.664Z,29.60
2023-01-22T06:53:15.860Z,29.50
2023-01-22T06:58:18.127Z,29.50
2023-01-22T07:03:20.692Z,29.50
2023-01-22T07:18:28.465Z,29.50
2023-01-22T07:23:30.979Z,29.50
2023-01-22T07:33:35.611Z,29.50
2023-01-22T07:38:37.711Z,29.50
2023-01-22T07:54:12.900Z,29.50
2023-01-22T07:59:15.042Z,29.50
2023-01-22T08:04:17.136Z,29.50
2023-01-22T08:09:24.711Z,29.60
2023-01-22T08:14:26.950Z,29.60
2023-01-22T08:19:29.663Z,29.70
2023-01-22T08:29:34.717Z,29.70
2023-01-22T08:34:39.284Z,29.80
2023-01-22T08:39:41.353Z,29.90
2023-01-22T08:49:46.069Z,29.90
2023-01-22T08:54:48.817Z,29.90
2023-01-22T09:00:00.775Z,29.90
2023-01-22T09:05:03.645Z,29.80
2023-01-22T09:10:08.124Z,29.90
2023-01-22T09:15:10.607Z,29.60
2023-01-22T09:20:12.576Z,29.70
2023-01-22T09:25:16.159Z,29.50
2023-01-22T09:35:21.391Z,29.70
2023-01-22T09:40:40.798Z,30.00
2023-01-22T09:50:46.929Z,29.70
2023-01-22T09:55:52.746Z,29.60
2023-01-22T10:01:01.419Z,29.10
2023-01-22T10:06:14.671Z,29.00
2023-01-22T10:16:19.499Z,29.00
2023-01-22T10:21:43.194Z,29.00
2023-01-22T10:26:54.446Z,28.00
2023-01-22T10:31:59.607Z,28.00
2023-01-22T10:37:10.783Z,27.80
2023-01-22T10:42:21.228Z,28.00
2023-01-22T10:47:27.570Z,29.10
2023-01-22T10:52:39.973Z,27.40
2023-01-22T10:57:43.391Z,27.20
2023-01-22T11:02:48.378Z,27.00
2023-01-22T11:08:02.154Z,27.30
2023-01-22T11:13:42.748Z,27.50
2023-01-22T11:19:05.155Z,26.90
2023-01-22T11:24:21.729Z,26.80
2023-01-22T11:30:00.007Z,26.70
2023-01-22T11:45:19.968Z,26.20
2023-01-22T11:50:43.185Z,26.00
2023-01-22T12:06:38.683Z,26.00
2023-01-22T12:11:46.605Z,25.70
2023-01-22T12:17:22.351Z,25.50
2023-01-22T12:27:39.150Z,24.90
2023-01-22T12:43:06.447Z,24.70
2023-01-22T12:48:11.300Z,25.40
2023-01-22T12:58:30.158Z,24.80
2023-01-22T13:08:43.484Z,24.90
2023-01-22T13:13:50.874Z,24.60
2023-01-22T13:24:00.729Z,24.60
2023-01-22T13:29:32.843Z,25.00
2023-01-22T13:34:35.066Z,25.10
2023-01-22T13:44:41.191Z,25.20
2023-01-22T14:00:30.503Z,25.40
2023-01-22T14:05:35.194Z,25.50
2023-01-22T14:25:53.183Z,25.40
2023-01-22T14:30:55.405Z,25.50
2023-01-22T14:46:09.164Z,25.70
2023-01-22T14:51:12.350Z,25.70
2023-01-22T14:56:14.518Z,25.60
2023-01-22T15:01:19.103Z,25.70
2023-01-22T15:06:21.302Z,25.60
2023-01-22T15:11:23.495Z,25.80
2023-01-22T15:16:25.674Z,25.80
2023-01-22T15:21:27.795Z,25.80
2023-01-22T15:26:33.403Z,25.90
2023-01-22T15:36:41.922Z,25.90
2023-01-22T15:46:47.410Z,25.70
2023-01-22T15:51:49.584Z,25.70
2023-01-22T15:56:51.773Z,25.90
2023-01-22T16:01:53.975Z,26.00
2023-01-22T16:06:56.109Z,26.10
2023-01-22T16:11:58.998Z,25.90
2023-01-22T16:17:02.100Z,26.00
2023-01-22T16:22:04.327Z,26.10
2023-01-22T16:27:06.427Z,26.20
2023-01-22T16:32:08.513Z,26.30
2023-01-22T16:37:10.997Z,26.30
2023-01-22T16:42:13.078Z,26.20
2023-01-22T16:47:15.240Z,26.40
2023-01-22T16:52:22.751Z,26.50
2023-01-22T16:57:25.350Z,26.40
2023-01-22T17:02:27.497Z,26.40
2023-01-22T17:07:33.959Z,26.50
2023-01-22T17:12:36.513Z,27.10
2023-01-22T17:17:38.741Z,26.90
2023-01-22T17:22:41.115Z,27.30
2023-01-22T17:27:43.253Z,27.20
2023-01-22T17:32:46.984Z,27.40
2023-01-22T17:42:52.605Z,27.60
2023-01-22T17:47:54.728Z,27.40
2023-01-22T17:52:57.245Z,27.50
2023-01-22T17:58:02.006Z,27.30
2023-01-22T18:03:04.968Z,27.20
2023-01-22T18:08:07.248Z,26.80
2023-01-22T18:13:09.351Z,27.10
2023-01-22T18:18:11.480Z,26.90
2023-01-22T18:23:15.336Z,27.00
2023-01-22T18:28:18.947Z,27.20
2023-01-22T18:33:24.314Z,27.00
2023-01-22T18:38:28.968Z,27.30
2023-01-22T18:48:33.982Z,27.60
2023-01-22T18:53:37.463Z,27.90
2023-01-22T18:58:42.386Z,27.70
2023-01-22T19:03:51.317Z,27.80
2023-01-22T19:09:05.828Z,27.80
2023-01-22T19:14:09.538Z,28.20
2023-01-22T19:19:13.533Z,27.20
2023-01-22T19:24:21.892Z,28.10
2023-01-22T19:29:25.477Z,27.90
2023-01-22T19:34:30.443Z,28.00
2023-01-22T19:44:35.542Z,28.20
2023-01-22T19:49:38.023Z,28.00
2023-01-22T19:54:44.068Z,28.20
2023-01-22T19:59:47.991Z,28.10
2023-01-22T20:04:50.201Z,28.50
2023-01-22T20:09:54.962Z,28.50
2023-01-22T20:14:57.395Z,28.60
2023-01-22T20:19:59.549Z,28.60
2023-01-22T20:25:02.554Z,28.20
2023-01-22T20:30:05.892Z,28.10
2023-01-22T20:35:08.213Z,28.90
2023-01-22T20:40:12.024Z,28.80
2023-01-22T20:45:14.182Z,28.60
2023-01-22T20:50:16.676Z,28.20
2023-01-22T20:55:19.924Z,28.80
2023-01-22T21:00:22.485Z,28.80
2023-01-22T21:05:24.587Z,28.80
2023-01-22T21:10:26.697Z,28.60
2023-01-22T21:15:29.192Z,28.70
2023-01-22T21:20:31.214Z,28.40
2023-01-22T21:25:37.040Z,28.50
2023-01-22T21:30:39.382Z,28.70
2023-01-22T21:35:47.217Z,29.00
2023-01-22T21:40:49.458Z,29.00
2023-01-22T21:46:09.976Z,28.90
2023-01-22T21:51:12.205Z,28.80
2023-01-22T21:56:14.573Z,29.10
2023-01-22T22:01:20.715Z,29.10
2023-01-22T22:06:22.868Z,29.00
2023-01-22T22:11:26.393Z,28.70
2023-01-22T22:16:28.608Z,29.00
2023-01-22T22:26:34.016Z,29.20
2023-01-22T22:31:36.719Z,29.20
2023-01-22T22:36:39.117Z,29.00
2023-01-22T22:41:41.328Z,28.60
2023-01-22T22:46:43.581Z,28.70
2023-01-22T22:51:46.118Z,29.20
2023-01-22T22:56:49.488Z,28.70
2023-01-22T23:01:51.620Z,29.50
2023-01-22T23:06:54.353Z,28.70
2023-01-22T23:11:58.376Z,29.10
2023-01-22T23:17:00.632Z,29.60
2023-01-22T23:22:02.839Z,29.60
2023-01-22T23:27:05.028Z,29.70
2023-01-22T23:32:07.129Z,30.20
2023-01-22T23:37:09.278Z,29.50
2023-01-22T23:42:11.532Z,29.40
2023-01-22T23:47:13.675Z,29.20
2023-01-22T23:52:15.872Z,29.90
2023-01-22T23:57:18.179Z,29.60
